Decoded Metar for OIFM (ESFAHAN in IRAN) (IATA:N/A) | Meteo·Mobile Aviation Weather
aviador You're here:

OIFM Decoded Metar

ESFAHAN in IRAN
Report Time2019-07-19 19:00:00
UTC Time2019-07-19 19:32:01
Flight Rules vfr VFR
Wind320° at 04 kt
W.Decomp.*RWY 26: 2.1 kt HW 3.4 kt RCW
Visibility9999 m
Phenomena:N/A
Clouds:N/A
Expected CloudBase > 14,400 ft AGL from Temp-Dew spread
CeilingNone
Temp29°C (ISA +24)
Dew Point-7°C (9% RH)
Heat Index27.4°C
AAT24.7°C
QNH1014 hPa
Density Alt7,795 ft
Elevation5,059 ft
Report Wrong Elevation
Raw Report
METAR OIFM 191900Z 32004KT CAVOK 29/M07 Q1014 A2996=

Extra information for OIFM:More info

Metar Taf Metar & Taf Last 4 Metars F.Rules Stats Wind Profile Meteogram Temp Stats Airport Information Weather charts Add Link Nearby VenuesMetar ALERT Operation Metar Decoded Social comments